createdAt,value
2018-09-30T05:59:01.532Z,97240.33
2018-09-30T06:01:30.597Z,97242.97
2018-09-30T06:03:59.741Z,97242.72
2018-09-30T06:06:28.741Z,97235.46
2018-09-30T06:08:57.937Z,97239.88
2018-09-30T06:11:26.945Z,97239.97
2018-09-30T06:13:56.003Z,97239.62
2018-09-30T06:16:25.002Z,97236.87
2018-09-30T06:18:54.093Z,97233.73
2018-09-30T06:21:23.133Z,97232.83
2018-09-30T06:23:52.234Z,97233.42
2018-09-30T06:26:21.247Z,97232.02
2018-09-30T06:28:50.321Z,97233.01
2018-09-30T06:31:19.385Z,97236.55
2018-09-30T06:33:48.482Z,97230.06
2018-09-30T06:36:17.541Z,97232.66
2018-09-30T06:38:46.607Z,97229.34
2018-09-30T06:41:15.642Z,97231.12
2018-09-30T06:43:44.698Z,97225.84
2018-09-30T06:46:13.766Z,97228.91
2018-09-30T06:48:42.916Z,97228.27
2018-09-30T06:51:11.969Z,97232.68
2018-09-30T06:53:41.098Z,97233.19
2018-09-30T06:56:10.805Z,97238.46
2018-09-30T06:58:39.892Z,97238.57
2018-09-30T07:01:09.021Z,97235.26
2018-09-30T07:03:39.008Z,97234.90
2018-09-30T07:06:08.083Z,97237.61
2018-09-30T07:08:37.187Z,97235.34
2018-09-30T07:11:06.366Z,97236.75
2018-09-30T07:13:35.857Z,97232.34
2018-09-30T07:16:04.986Z,97233.29
2018-09-30T07:18:34.038Z,97236.81
2018-09-30T07:21:03.133Z,97235.33
2018-09-30T07:23:32.233Z,97234.77
2018-09-30T07:26:01.298Z,97236.54
2018-09-30T07:28:30.418Z,97236.71
2018-09-30T07:30:59.477Z,97225.95
2018-09-30T07:33:28.545Z,97211.76
2018-09-30T07:35:57.627Z,97223.81
2018-09-30T07:38:26.895Z,97219.72
2018-09-30T07:40:55.960Z,97225.80
2018-09-30T07:43:25.322Z,97224.33
2018-09-30T07:45:54.727Z,97223.62
2018-09-30T07:48:23.886Z,97221.80
2018-09-30T07:50:52.985Z,97217.42
2018-09-30T07:53:22.109Z,97213.80
2018-09-30T07:55:51.157Z,97210.99
2018-09-30T07:58:20.390Z,97206.94
2018-09-30T08:00:49.501Z,97198.80
2018-09-30T08:03:18.652Z,97199.19
2018-09-30T08:05:47.762Z,97191.83
2018-09-30T08:08:17.055Z,97197.20
2018-09-30T08:10:46.307Z,97196.16
2018-09-30T08:13:15.404Z,97191.69
2018-09-30T08:15:44.470Z,97195.28
2018-09-30T08:18:13.566Z,97194.72
2018-09-30T08:20:42.648Z,97198.43
2018-09-30T08:23:11.729Z,97193.52
2018-09-30T08:25:40.819Z,97196.13
2018-09-30T08:28:09.922Z,97200.58
2018-09-30T08:30:39.054Z,97199.92
2018-09-30T08:33:08.116Z,97186.47
2018-09-30T08:35:37.159Z,97191.75
2018-09-30T08:38:11.813Z,97201.91
2018-09-30T08:40:46.184Z,97198.56
2018-09-30T08:43:15.272Z,97196.03
2018-09-30T08:45:44.428Z,97195.97
2018-09-30T08:48:13.515Z,97192.69
2018-09-30T08:50:42.619Z,97187.16
2018-09-30T08:53:11.737Z,97186.83
2018-09-30T08:55:40.820Z,97182.70
2018-09-30T08:58:09.919Z,97184.48
2018-09-30T09:00:39.067Z,97190.55
2018-09-30T09:03:08.202Z,97180.94
2018-09-30T09:05:37.274Z,97188.30
2018-09-30T09:08:06.934Z,97183.77
2018-09-30T09:10:37.056Z,97189.30
2018-09-30T09:13:07.452Z,97187.64
2018-09-30T09:15:37.118Z,97184.31
2018-09-30T09:18:06.980Z,97182.67
2018-09-30T09:20:37.166Z,97179.83
2018-09-30T09:23:07.076Z,97171.03
2018-09-30T09:25:37.155Z,97175.30
2018-09-30T09:28:07.143Z,97177.06
2018-09-30T09:30:37.043Z,97166.96
2018-09-30T09:33:07.091Z,97157.67
2018-09-30T09:35:37.210Z,97152.67
2018-09-30T09:38:07.083Z,97150.22
2018-09-30T09:40:37.251Z,97152.84
2018-09-30T09:43:07.184Z,97145.28
2018-09-30T09:45:37.448Z,97141.94
2018-09-30T09:48:07.170Z,97136.50
2018-09-30T09:50:37.364Z,97131.88
2018-09-30T09:53:07.266Z,97140.43
2018-09-30T09:55:37.431Z,97130.32
2018-09-30T09:58:07.274Z,97130.38
2018-09-30T10:00:43.696Z,97134.69
2018-09-30T10:03:13.838Z,97123.23
2018-09-30T10:05:43.095Z,97123.69
2018-09-30T10:08:12.278Z,97120.31
2018-09-30T10:10:41.387Z,97111.81
2018-09-30T10:13:10.766Z,97107.17
2018-09-30T10:15:39.872Z,97106.82
2018-09-30T10:18:09.005Z,97105.13
2018-09-30T10:20:38.121Z,97095.80
2018-09-30T10:23:07.662Z,97092.44
2018-09-30T10:25:37.626Z,97095.86
2018-09-30T10:28:07.723Z,97091.59
2018-09-30T10:30:37.784Z,97087.77
2018-09-30T10:33:07.848Z,97090.33
2018-09-30T10:35:37.700Z,97080.58
2018-09-30T10:38:07.885Z,97081.43
2018-09-30T10:40:37.881Z,97073.36
2018-09-30T10:43:07.832Z,97067.81
2018-09-30T10:45:37.827Z,97052.94
2018-09-30T10:48:07.929Z,97061.02
2018-09-30T10:50:38.037Z,97050.79
2018-09-30T10:53:07.998Z,97046.11
2018-09-30T10:55:38.036Z,97044.84
2018-09-30T10:58:07.988Z,97043.95
2018-09-30T11:00:38.033Z,97034.58
2018-09-30T11:03:08.027Z,97032.86
2018-09-30T11:05:38.039Z,97057.52
2018-09-30T11:08:08.173Z,97015.75
2018-09-30T11:10:38.191Z,97017.44
2018-09-30T11:13:08.398Z,97012.31
2018-09-30T11:15:38.158Z,97002.91
2018-09-30T11:18:08.321Z,97002.41
2018-09-30T11:20:38.223Z,97001.95
2018-09-30T11:23:08.243Z,96998.11
2018-09-30T11:25:38.198Z,96996.89
2018-09-30T11:28:08.409Z,96990.80
2018-09-30T11:30:38.265Z,96989.86
2018-09-30T11:33:08.369Z,96982.13
2018-09-30T11:35:38.531Z,96981.73
2018-09-30T11:38:08.426Z,96981.63
2018-09-30T11:40:38.383Z,96972.64
2018-09-30T11:43:08.477Z,96964.52
2018-09-30T11:45:38.588Z,96971.68
2018-09-30T11:48:08.496Z,96962.28
2018-09-30T11:50:38.589Z,96961.84
2018-09-30T11:53:08.774Z,96958.03
2018-09-30T11:55:38.630Z,96952.02
2018-09-30T11:58:08.592Z,96949.39
2018-09-30T12:00:38.631Z,96934.42
2018-09-30T12:03:08.799Z,96925.95
2018-09-30T12:05:38.814Z,96931.48
2018-09-30T12:08:08.859Z,96919.52
2018-09-30T12:10:38.766Z,96927.48
2018-09-30T12:13:08.941Z,96917.64
2018-09-30T12:15:38.785Z,96923.06
2018-09-30T12:18:08.950Z,96905.90
2018-09-30T12:20:39.469Z,96911.33
2018-09-30T12:23:09.066Z,96903.58
2018-09-30T12:25:38.918Z,96899.70
2018-09-30T12:28:09.041Z,96898.36
2018-09-30T12:30:38.963Z,96894.00
2018-09-30T12:33:09.073Z,96888.05
2018-09-30T12:35:38.939Z,96890.57
2018-09-30T12:38:08.966Z,96884.50
2018-09-30T12:40:38.975Z,96879.38
2018-09-30T12:43:09.129Z,96872.56
2018-09-30T12:45:39.081Z,96870.81
2018-09-30T12:48:09.284Z,96869.91
2018-09-30T12:50:39.103Z,96865.51
2018-09-30T12:53:09.107Z,96858.63
2018-09-30T12:55:39.149Z,96861.95
2018-09-30T12:58:09.343Z,96856.72
2018-09-30T13:00:39.191Z,96855.33
2018-09-30T13:03:09.314Z,96844.28
2018-09-30T13:05:39.203Z,96844.59
2018-09-30T13:08:09.225Z,96841.02
2018-09-30T13:10:39.213Z,96843.47
2018-09-30T13:13:09.359Z,96838.80
2018-09-30T13:15:40.254Z,96833.19
2018-09-30T13:18:09.565Z,96833.45
2018-09-30T13:20:39.473Z,96828.75
2018-09-30T13:23:09.385Z,96824.75
2018-09-30T13:25:39.345Z,96825.11
2018-09-30T13:28:09.340Z,96829.31
2018-09-30T13:30:38.512Z,96824.22
2018-09-30T13:33:07.576Z,96822.34
2018-09-30T13:35:36.676Z,96813.70
2018-09-30T13:38:05.831Z,96817.86
2018-09-30T13:40:34.939Z,96815.27
2018-09-30T13:43:03.983Z,96810.84
2018-09-30T13:45:33.058Z,96807.36
2018-09-30T13:48:02.131Z,96800.41
2018-09-30T13:50:31.229Z,96794.34
2018-09-30T13:53:00.345Z,96792.77
2018-09-30T13:55:29.429Z,96789.97
2018-09-30T13:57:58.530Z,96785.88
2018-09-30T14:00:27.757Z,96783.11
2018-09-30T14:02:56.843Z,96779.73
2018-09-30T14:05:26.029Z,96772.88
2018-09-30T14:07:55.523Z,96775.67
2018-09-30T14:10:24.599Z,96770.11
2018-09-30T14:12:53.691Z,96764.72
2018-09-30T14:15:23.333Z,96766.20
2018-09-30T14:17:52.761Z,96757.77
2018-09-30T14:20:21.793Z,96747.73
2018-09-30T14:22:50.996Z,96750.77
2018-09-30T14:25:20.041Z,96740.81
2018-09-30T14:27:49.143Z,96738.87
2018-09-30T14:30:18.177Z,96732.43
2018-09-30T14:32:47.245Z,96730.86
2018-09-30T14:35:16.312Z,96730.99
2018-09-30T14:37:45.400Z,96729.67
2018-09-30T14:40:14.514Z,96723.98
2018-09-30T14:42:43.606Z,96721.25
2018-09-30T14:45:12.677Z,96715.59
2018-09-30T14:47:41.825Z,96711.11
2018-09-30T14:50:11.032Z,96714.52
2018-09-30T14:52:40.379Z,96720.69
2018-09-30T14:55:10.426Z,96715.51
2018-09-30T14:57:40.428Z,96713.66
2018-09-30T15:00:10.389Z,96716.56
2018-09-30T15:02:40.290Z,96708.94
2018-09-30T15:05:10.414Z,96706.23
2018-09-30T15:07:40.504Z,96701.08
2018-09-30T15:10:10.498Z,96704.69
2018-09-30T15:12:41.401Z,96707.30
2018-09-30T15:15:10.483Z,96698.58
2018-09-30T15:17:41.343Z,96701.32
2018-09-30T15:20:10.474Z,96698.64
2018-09-30T15:22:40.618Z,96699.05
2018-09-30T15:25:10.784Z,96701.63
2018-09-30T15:27:40.705Z,96698.00
2018-09-30T15:30:10.697Z,96697.99
2018-09-30T15:32:40.658Z,96693.16
2018-09-30T15:35:09.887Z,96692.21
2018-09-30T15:37:45.686Z,96687.41
2018-09-30T15:40:14.796Z,96689.54
2018-09-30T15:42:44.169Z,96689.95
2018-09-30T15:45:13.777Z,96691.05
2018-09-30T15:47:42.885Z,96679.77
2018-09-30T15:50:12.366Z,96687.30
2018-09-30T15:52:41.567Z,96689.22
2018-09-30T15:55:17.707Z,96688.53
2018-09-30T15:57:47.670Z,96685.23
2018-09-30T16:00:16.746Z,96686.25
2018-09-30T16:02:46.057Z,96692.45
2018-09-30T16:05:15.151Z,96690.04
2018-09-30T16:07:44.278Z,96690.63
2018-09-30T16:10:13.340Z,96688.80
2018-09-30T16:12:42.424Z,96680.45
2018-09-30T16:15:11.573Z,96684.09
2018-09-30T16:17:41.516Z,96685.09
2018-09-30T16:20:11.579Z,96688.66
2018-09-30T16:22:41.446Z,96688.38
2018-09-30T16:25:11.605Z,96680.36
2018-09-30T16:27:41.517Z,96679.67
2018-09-30T16:30:11.497Z,96684.98
2018-09-30T16:32:41.563Z,96680.88
2018-09-30T16:35:11.589Z,96683.95
2018-09-30T16:37:41.619Z,96680.25
2018-09-30T16:40:11.583Z,96682.54
2018-09-30T16:42:41.615Z,96674.22
2018-09-30T16:45:11.779Z,96680.28
2018-09-30T16:47:41.904Z,96685.95
2018-09-30T16:50:11.878Z,96677.59
2018-09-30T16:52:42.670Z,96683.69
2018-09-30T16:55:11.871Z,96690.97
2018-09-30T16:57:41.950Z,96690.66
2018-09-30T17:00:12.117Z,96695.02
2018-09-30T17:02:42.036Z,96701.15
2018-09-30T17:05:11.951Z,96701.25
2018-09-30T17:07:42.113Z,96704.79
2018-09-30T17:10:12.113Z,96702.36
2018-09-30T17:12:42.136Z,96707.59
2018-09-30T17:15:12.131Z,96708.53
2018-09-30T17:17:42.079Z,96709.87
2018-09-30T17:25:25.204Z,96705.05
2018-09-30T17:27:58.417Z,96703.89
2018-09-30T17:30:27.746Z,96705.69
2018-09-30T17:32:57.201Z,96707.48
2018-09-30T17:35:26.546Z,96708.81
2018-09-30T17:37:58.488Z,96708.87
2018-09-30T17:40:27.719Z,96710.67
2018-09-30T17:43:02.588Z,96702.67
2018-09-30T17:45:36.064Z,96707.41
2018-09-30T17:48:07.218Z,96707.04
2018-09-30T17:50:41.407Z,96708.83
2018-09-30T17:53:11.143Z,96708.43
2018-09-30T17:55:40.546Z,96708.06
2018-09-30T17:58:10.129Z,96704.69
2018-09-30T18:00:39.294Z,96708.10
2018-09-30T18:03:08.626Z,96706.02
2018-09-30T18:05:40.058Z,96707.33
2018-09-30T18:08:09.320Z,96701.45
2018-09-30T18:10:38.724Z,96696.36
2018-09-30T18:13:09.226Z,96697.25
2018-09-30T18:15:38.814Z,96710.88
2018-09-30T18:18:11.815Z,96701.59
2018-09-30T18:20:41.289Z,96705.44
2018-09-30T18:23:10.867Z,96705.05
2018-09-30T18:25:41.613Z,96702.10
2018-09-30T18:30:47.260Z,96700.03
2018-09-30T18:33:16.954Z,96699.21
2018-09-30T18:35:46.829Z,96692.02
2018-09-30T18:38:16.337Z,96689.93
2018-09-30T18:40:47.672Z,96692.94
2018-09-30T18:43:17.325Z,96688.26
2018-09-30T18:45:48.469Z,96692.53
2018-09-30T18:48:20.221Z,96692.58
2018-09-30T18:50:49.687Z,96691.69
2018-09-30T18:53:19.302Z,96692.13
2018-09-30T18:55:49.256Z,96682.82
2018-09-30T18:58:18.825Z,96683.70
2018-09-30T19:00:48.853Z,96681.59
2018-09-30T19:03:18.514Z,96683.31
2018-09-30T19:05:48.098Z,96677.37
2018-09-30T19:08:17.664Z,96681.63
2018-09-30T19:10:47.246Z,96677.80
2018-09-30T19:13:16.857Z,96673.59
2018-09-30T19:15:46.801Z,96671.45
2018-09-30T19:18:16.384Z,96674.88
2018-09-30T19:20:47.205Z,96676.56
2018-09-30T19:23:16.778Z,96673.62
2018-09-30T19:25:46.879Z,96672.34
2018-09-30T19:28:18.595Z,96671.07
2018-09-30T19:30:49.584Z,96673.22
2018-09-30T19:33:19.210Z,96668.98
2018-09-30T19:35:51.312Z,96665.60
2018-09-30T19:38:20.916Z,96663.05
2018-09-30T19:40:51.689Z,96661.34
2018-09-30T19:43:21.216Z,96655.42
2018-09-30T19:45:51.209Z,96648.63
2018-09-30T19:48:22.802Z,96644.83
2018-09-30T19:50:54.403Z,96643.57
2018-09-30T19:53:25.852Z,96644.41
2018-09-30T19:55:57.788Z,96644.83
2018-09-30T19:58:27.356Z,96647.80
2018-09-30T20:00:57.358Z,96641.84
2018-09-30T20:03:28.765Z,96647.80
2018-09-30T20:06:00.425Z,96643.52
2018-09-30T20:08:33.394Z,96639.30
2018-09-30T20:11:02.951Z,96635.05
2018-09-30T20:13:32.369Z,96633.34
2018-09-30T20:16:02.811Z,96626.58
2018-09-30T20:18:34.400Z,96630.39
2018-09-30T20:21:07.369Z,96624.04
2018-09-30T20:23:38.600Z,96618.96
2018-09-30T20:26:11.471Z,96626.55
2018-09-30T20:28:40.659Z,96622.75
2018-09-30T20:31:14.084Z,96617.25
2018-09-30T20:33:43.552Z,96614.72
2018-09-30T20:36:12.799Z,96617.67
2018-09-30T20:38:41.955Z,96623.59
2018-09-30T20:41:11.118Z,96618.93
2018-09-30T20:43:40.415Z,96621.45
2018-09-30T20:46:09.561Z,96624.84
2018-09-30T20:48:38.726Z,96624.82
2018-09-30T20:51:13.433Z,96622.28
2018-09-30T20:53:42.598Z,96613.81
2018-09-30T20:56:12.821Z,96610.42
2018-09-30T20:58:44.505Z,96607.03
2018-09-30T21:01:15.347Z,96603.63
2018-09-30T21:03:50.019Z,96598.56
2018-09-30T21:06:28.317Z,96598.56
2018-09-30T21:08:57.518Z,96601.06
2018-09-30T21:11:26.822Z,96595.14
2018-09-30T21:13:56.046Z,96595.14
2018-09-30T21:16:27.458Z,96599.36
2018-09-30T21:18:58.930Z,96587.94
2018-09-30T21:21:28.107Z,96584.95
2018-09-30T21:23:59.567Z,96579.89
2018-09-30T21:26:28.860Z,96578.17
2018-09-30T21:28:58.019Z,96580.71
2018-09-30T21:31:27.389Z,96577.31
2018-09-30T21:33:58.554Z,96577.31
2018-09-30T21:36:27.651Z,96570.12
2018-09-30T21:38:56.776Z,96568.41
2018-09-30T21:41:25.946Z,96562.06
2018-09-30T21:43:55.087Z,96560.83
2018-09-30T21:46:24.333Z,96556.17
2018-09-30T21:48:53.843Z,96562.06
2018-09-30T21:51:22.891Z,96554.86
2018-09-30T21:53:55.684Z,96556.14
2018-09-30T21:56:24.922Z,96549.38
2018-09-30T21:58:54.132Z,96545.58
2018-09-30T22:01:23.387Z,96543.45
2018-09-30T22:03:52.411Z,96544.31
2018-09-30T22:06:21.702Z,96537.52
2018-09-30T22:08:51.219Z,96539.20
2018-09-30T22:11:20.422Z,96530.73
2018-09-30T22:13:49.980Z,96534.98
2018-09-30T22:16:20.981Z,96529.88
2018-09-30T22:18:50.505Z,96536.22
2018-09-30T22:21:21.325Z,96527.34
2018-09-30T22:23:52.076Z,96519.30
2018-09-30T22:26:21.243Z,96513.77
2018-09-30T22:28:50.749Z,96520.52
2018-09-30T22:31:20.000Z,96519.67
2018-09-30T22:33:51.246Z,96511.23
2018-09-30T22:36:20.375Z,96512.06
2018-09-30T22:38:49.971Z,96513.33
2018-09-30T22:41:23.889Z,96504.42
2018-09-30T22:43:56.288Z,96505.27
2018-09-30T22:46:25.632Z,96497.26
2018-09-30T22:48:56.772Z,96495.13
2018-09-30T22:51:25.889Z,96502.70
2018-09-30T22:53:57.131Z,96498.08
2018-09-30T22:56:28.461Z,96501.02
2018-09-30T22:59:00.425Z,96500.16
2018-09-30T23:01:31.862Z,96490.03
2018-09-30T23:04:01.030Z,96491.30
2018-09-30T23:06:30.211Z,96498.48
2018-09-30T23:09:03.208Z,96495.95
2018-09-30T23:11:36.413Z,96496.81
2018-09-30T23:14:05.625Z,96483.69
2018-09-30T23:16:34.739Z,96482.42
2018-09-30T23:19:03.863Z,96483.27
2018-09-30T23:21:32.979Z,96486.67
2018-09-30T23:24:04.662Z,96488.34
2018-09-30T23:26:33.792Z,96495.95
2018-09-30T23:29:04.487Z,96494.28
2018-09-30T23:31:35.843Z,96490.06
2018-09-30T23:34:05.224Z,96489.20
2018-09-30T23:36:34.399Z,96487.12
2018-09-30T23:39:05.676Z,96483.73
2018-09-30T23:41:36.919Z,96482.46
2018-09-30T23:44:06.123Z,96481.19
2018-09-30T23:46:35.442Z,96484.14
2018-09-30T23:49:08.522Z,96482.88
2018-09-30T23:51:37.803Z,96477.80
2018-09-30T23:54:07.215Z,96473.17
2018-09-30T23:56:37.978Z,96475.71
2018-09-30T23:59:08.879Z,96470.64
